Du Pont, Georgia
Current Conditions -  °F | °C
As of 3:35 AM on Sunday 23 Nov 2014 (Local Time) from KHOE Reporting Station
Light Rain Light Rain  
Wind Chill: 63°   Ceiling: 500
Heat Index: 63°   Visibility: 7mi
Dew Point: 63°   Wind: 8mph
Humidity: 100%   Direction: 90°E
Pressure: 30.03"   Gusts: NA
Location:  30.99°N, 82.87°W
Report Text: KHOE 230835Z AUTO 09007KT 7SM -RA BKN005 BKN010 OVC038 17/17 A3003 RMK AO2
Loading
Personal Weather Stations






























Interactive Weather Map New forecast layout! Learn more

10-Day Weather Forecast

Advertisements
Track Severe Weather on mobile